Time;durP1;ratioP1;P1;durP2;ratioP2;P2;SDS_P1;SDS_P2;PMS_P1;PMS_P2;Temp;Humidity;BMP_temperature;BMP_pressure;BME280_temperature;BME280_humidity;BME280_pressure;Samples;Min_cycle;Max_cycle;Signal;HPM_P1;HPM_P2
2022/04/25 00:01:40;;;;;;;9.75;5.10;;;;;;;9.83;100.00;99282.22;5575622;31;33345;-67
2022/04/25 00:04:44;;;;;;;13.05;5.85;;;;;;;9.87;100.00;99281.69;5589457;31;34702;-67
2022/04/25 00:07:46;;;;;;;11.10;5.35;;;;;;;9.78;100.00;99282.81;5589404;31;33837;-67
2022/04/25 00:10:49;;;;;;;10.07;5.05;;;;;;;9.70;100.00;99279.47;5575092;31;34008;-67
2022/04/25 00:13:52;;;;;;;10.85;4.82;;;;;;;9.68;100.00;99276.22;5575294;31;32553;-67
2022/04/25 00:16:56;;;;;;;10.90;5.18;;;;;;;9.74;100.00;99286.84;5588937;31;33963;-67
2022/04/25 00:19:59;;;;;;;8.98;5.43;;;;;;;9.70;100.00;99282.94;5588680;31;34759;-67
2022/04/25 00:23:04;;;;;;;12.18;5.93;;;;;;;9.69;100.00;99280.47;5589075;31;34898;-67
2022/04/25 00:26:07;;;;;;;12.82;5.20;;;;;;;9.71;100.00;99279.28;5575306;31;32557;-67
2022/04/25 00:29:10;;;;;;;7.43;4.75;;;;;;;9.67;100.00;99269.25;5589036;31;33937;-67
2022/04/25 00:32:13;;;;;;;8.82;4.82;;;;;;;9.62;100.00;99274.31;5589035;31;33956;-67
2022/04/25 00:35:16;;;;;;;10.77;4.97;;;;;;;9.52;100.00;99274.63;5588954;31;34588;-67
2022/04/25 00:38:19;;;;;;;10.10;4.93;;;;;;;9.43;100.00;99273.91;5575072;31;33029;-67
2022/04/25 00:41:22;;;;;;;7.93;4.70;;;;;;;9.39;100.00;99267.34;5574625;31;33594;-67
2022/04/25 00:44:24;;;;;;;9.38;4.07;;;;;;;9.37;100.00;99273.84;5574664;31;32823;-67
2022/04/25 00:47:27;;;;;;;9.70;4.53;;;;;;;9.32;100.00;99265.62;5588643;31;34575;-67
2022/04/25 00:50:31;;;;;;;8.88;4.60;;;;;;;9.32;100.00;99262.97;5588624;31;33954;-67
2022/04/25 00:53:34;;;;;;;9.73;4.50;;;;;;;9.36;100.00;99266.91;5574928;31;32679;-67
2022/04/25 00:56:38;;;;;;;7.45;4.35;;;;;;;9.37;100.00;99269.37;5588561;31;34684;-67
2022/04/25 00:59:41;;;;;;;8.63;4.70;;;;;;;9.36;100.00;99270.37;5574382;31;32570;-67
2022/04/25 01:02:43;;;;;;;11.80;5.05;;;;;;;9.40;100.00;99266.34;5574213;31;32449;-67
2022/04/25 01:05:46;;;;;;;13.13;4.90;;;;;;;9.49;100.00;99267.03;5588355;31;34175;-67
2022/04/25 01:08:51;;;;;;;8.98;4.30;;;;;;;9.57;100.00;99273.03;5574549;31;32973;-67
2022/04/25 01:11:54;;;;;;;7.53;4.30;;;;;;;9.59;100.00;99270.19;5574311;31;33099;-68
2022/04/25 01:14:58;;;;;;;10.95;4.28;;;;;;;9.66;100.00;99270.25;5574392;31;32559;-67
2022/04/25 01:18:02;;;;;;;9.85;4.40;;;;;;;9.74;100.00;99278.91;5588071;31;33902;-68
2022/04/25 01:21:08;;;;;;;7.80;4.10;;;;;;;9.85;100.00;99283.69;5574445;31;32937;-68
2022/04/25 01:27:34;;;;;;;7.22;4.10;;;;;;;9.92;100.00;99278.47;5587884;31;34048;-67
2022/04/25 01:30:37;;;;;;;7.80;4.00;;;;;;;10.00;100.00;99283.63;5589297;31;33914;-67
2022/04/25 01:33:39;;;;;;;12.23;3.92;;;;;;;10.07;100.00;99292.44;5591038;31;34067;-67
2022/04/25 01:36:42;;;;;;;11.02;3.87;;;;;;;10.24;100.00;99293.03;5590949;31;33913;-68
2022/04/25 01:39:45;;;;;;;9.13;3.60;;;;;;;10.52;100.00;99287.72;5576947;31;33101;-68
2022/04/25 01:42:48;;;;;;;9.27;3.70;;;;;;;10.64;100.00;99289.66;5576914;31;33999;-68
2022/04/25 01:45:51;;;;;;;10.07;3.65;;;;;;;10.71;100.00;99297.63;5590880;31;33935;-68
2022/04/25 01:48:54;;;;;;;8.18;3.67;;;;;;;10.74;100.00;99291.97;5590363;31;33938;-68
2022/04/25 01:51:57;;;;;;;9.43;4.28;;;;;;;10.85;100.00;99302.00;5590502;31;34157;-67
2022/04/25 01:55:02;;;;;;;8.73;3.78;;;;;;;10.85;100.00;99304.66;5590376;31;34133;-67
2022/04/25 01:58:05;;;;;;;9.95;3.78;;;;;;;10.80;100.00;99297.28;5590892;31;34630;-68
2022/04/25 02:01:08;;;;;;;6.07;3.62;;;;;;;10.78;100.00;99291.38;5590463;31;34586;-68
2022/04/25 02:04:11;;;;;;;11.57;4.25;;;;;;;10.76;100.00;99304.00;5576312;31;32449;-68
2022/04/25 02:07:14;;;;;;;8.68;4.35;;;;;;;10.72;100.00;99294.81;5576625;31;33542;-68
2022/04/25 02:10:16;;;;;;;6.70;3.85;;;;;;;10.67;100.00;99294.56;5590306;31;33988;-68
2022/04/25 02:13:22;;;;;;;8.85;4.30;;;;;;;10.57;100.00;99293.25;5590345;31;34070;-68
2022/04/25 02:16:25;;;;;;;8.32;4.20;;;;;;;10.54;100.00;99294.50;5576124;31;32809;-68
2022/04/25 02:19:29;;;;;;;8.27;4.30;;;;;;;10.53;100.00;99292.84;5590593;31;34051;-68
2022/04/25 02:22:35;;;;;;;8.23;4.15;;;;;;;10.56;100.00;99281.00;5590294;31;34692;-68
2022/04/25 02:25:37;;;;;;;8.27;3.95;;;;;;;10.47;100.00;99285.66;5590073;31;34275;-68
2022/04/25 02:28:40;;;;;;;5.55;3.62;;;;;;;10.40;100.00;99279.50;5576434;31;34519;-67
2022/04/25 02:31:43;;;;;;;6.78;3.53;;;;;;;10.35;100.00;99271.31;5572332;31;132007;-68
2022/04/25 02:34:46;;;;;;;7.47;3.90;;;;;;;10.26;100.00;99270.59;5590070;31;34721;-67
2022/04/25 02:37:49;;;;;;;10.48;3.97;;;;;;;10.22;100.00;99268.53;5575806;31;32715;-68
2022/04/25 02:41:06;;;;;;;8.55;3.58;;;;;;;10.21;100.00;99274.88;5589710;31;34447;-68
2022/04/25 02:44:09;;;;;;;8.35;3.50;;;;;;;10.22;100.00;99284.44;5590089;31;35230;-68
2022/04/25 02:47:12;;;;;;;9.10;4.00;;;;;;;10.27;100.00;99285.50;5576425;31;33978;-67
2022/04/25 02:50:14;;;;;;;8.52;3.67;;;;;;;10.22;100.00;99297.69;5590065;31;34639;-68
2022/04/25 02:53:17;;;;;;;7.97;3.05;;;;;;;10.33;100.00;99310.44;5576224;31;33838;-67
2022/04/25 02:56:20;;;;;;;9.90;3.60;;;;;;;10.30;100.00;99305.53;5589936;31;34805;-67
2022/04/25 02:59:26;;;;;;;7.62;3.37;;;;;;;10.30;100.00;99326.72;5576324;31;34043;-67
2022/04/25 03:02:29;;;;;;;7.65;3.35;;;;;;;10.27;100.00;99322.63;5589890;31;33922;-67
2022/04/25 03:05:32;;;;;;;7.78;2.80;;;;;;;10.27;100.00;99335.06;5589947;31;34715;-67
2022/04/25 03:08:35;;;;;;;5.35;2.85;;;;;;;10.21;100.00;99347.25;5589826;31;34716;-68
2022/04/25 03:11:38;;;;;;;6.03;2.83;;;;;;;10.26;100.00;99342.19;5575712;31;33716;-67
2022/04/25 03:14:41;;;;;;;7.57;3.33;;;;;;;10.45;100.00;99340.72;5590226;31;34633;-67
2022/04/25 03:17:44;;;;;;;4.10;2.45;;;;;;;10.40;100.00;99341.31;5575952;31;32784;-67
2022/04/25 03:20:49;;;;;;;6.40;2.50;;;;;;;10.43;100.00;99346.22;5589814;31;34651;-67
2022/04/25 03:23:53;;;;;;;5.45;2.50;;;;;;;10.44;100.00;99350.50;5590161;31;33991;-67
2022/04/25 03:26:57;;;;;;;5.60;2.25;;;;;;;10.46;100.00;99355.59;5576366;31;34142;-67
2022/04/25 03:29:59;;;;;;;3.10;1.98;;;;;;;10.52;100.00;99352.19;5589744;31;33978;-67
2022/04/25 03:33:03;;;;;;;3.25;1.73;;;;;;;10.60;99.24;99349.38;5576333;31;34590;-67
2022/04/25 03:36:07;;;;;;;3.20;1.83;;;;;;;10.51;98.67;99347.88;5575920;31;33330;-67
2022/04/25 03:39:10;;;;;;;5.78;1.87;;;;;;;10.57;97.36;99335.69;5589400;31;35300;-67
2022/04/25 03:42:13;;;;;;;2.47;1.48;;;;;;;10.64;96.25;99347.19;5589498;31;33980;-68
2022/04/25 03:45:18;;;;;;;3.53;1.27;;;;;;;10.60;96.88;99341.44;5575871;31;33487;-67
2022/04/25 03:48:20;;;;;;;4.75;1.70;;;;;;;10.74;91.41;99342.38;5589484;31;34681;-68
2022/04/25 03:51:23;;;;;;;3.75;1.50;;;;;;;10.73;93.21;99349.50;5589427;31;34013;-67
2022/04/25 03:57:47;;;;;;;3.42;1.25;;;;;;;10.73;92.62;99353.97;5589407;31;34134;-67
2022/04/25 04:00:50;;;;;;;2.58;1.42;;;;;;;10.70;93.45;99346.37;5575734;31;34035;-67
2022/04/25 04:03:53;;;;;;;4.25;1.30;;;;;;;10.61;95.73;99345.72;5575317;31;34450;-67
2022/04/25 04:07:02;;;;;;;3.83;1.42;;;;;;;10.55;95.49;99356.31;5589444;31;33903;-66
2022/04/25 04:10:06;;;;;;;3.97;1.50;;;;;;;10.55;96.43;99358.97;5589585;31;33878;-66
2022/04/25 04:13:10;;;;;;;7.40;1.55;;;;;;;10.63;92.74;99348.19;5589299;31;33970;-67
2022/04/25 04:16:13;;;;;;;3.92;1.30;;;;;;;10.72;92.72;99350.50;5589237;31;34652;-66
2022/04/25 04:19:15;;;;;;;2.60;1.30;;;;;;;10.74;91.53;99363.59;5588873;31;33944;-67
2022/04/25 04:22:21;;;;;;;3.05;1.33;;;;;;;10.68;91.51;99359.88;5575191;31;33578;-67
2022/04/25 04:25:24;;;;;;;2.20;1.25;;;;;;;10.75;92.43;99365.19;5589009;31;34372;-67
2022/04/25 04:28:27;;;;;;;4.20;1.17;;;;;;;10.75;92.24;99358.06;5589179;31;34282;-67
2022/04/25 04:31:29;;;;;;;1.67;0.85;;;;;;;10.76;91.21;99358.88;5575155;31;33339;-65
2022/04/25 04:34:36;;;;;;;5.10;1.12;;;;;;;10.85;89.32;99368.34;5574955;31;34524;-66
2022/04/25 04:37:40;;;;;;;3.50;1.10;;;;;;;10.85;90.07;99357.72;5588540;31;34027;-67
2022/04/25 04:40:42;;;;;;;6.22;1.40;;;;;;;10.87;91.00;99353.06;5574564;31;32863;-66
2022/04/25 04:43:45;;;;;;;3.65;0.98;;;;;;;10.96;89.01;99356.38;5588693;31;34078;-66
2022/04/25 04:46:48;;;;;;;1.75;1.00;;;;;;;11.02;91.34;99360.91;5588648;31;33961;-66
2022/04/25 04:49:50;;;;;;;3.50;1.08;;;;;;;11.07;89.22;99361.97;5588504;31;34075;-66
2022/04/25 04:52:57;;;;;;;4.07;1.40;;;;;;;11.04;91.26;99362.34;5574960;31;33107;-67
2022/04/25 04:56:00;;;;;;;3.15;1.10;;;;;;;11.12;88.55;99369.34;5574160;31;32487;-66
2022/04/25 04:59:03;;;;;;;2.45;1.20;;;;;;;11.25;87.74;99369.41;5588006;31;34226;-66
2022/04/25 05:02:06;;;;;;;2.83;0.90;;;;;;;11.27;88.40;99365.53;5588540;31;34005;-65
2022/04/25 05:05:10;;;;;;;4.03;1.10;;;;;;;11.27;86.76;99373.50;5589919;31;34624;-67
2022/04/25 05:08:12;;;;;;;4.87;1.12;;;;;;;11.26;87.83;99366.56;5590822;31;34618;-66
2022/04/25 05:11:15;;;;;;;5.03;0.90;;;;;;;11.29;86.88;99374.13;5577422;31;32532;-65
2022/04/25 05:14:17;;;;;;;2.35;0.90;;;;;;;11.26;86.87;99381.66;5576303;31;32601;-65
2022/04/25 05:17:20;;;;;;;3.05;1.10;;;;;;;11.34;86.63;99392.94;5577000;31;34567;-66
2022/04/25 05:20:24;;;;;;;2.97;1.20;;;;;;;11.32;86.74;99383.53;5576247;31;33048;-65
2022/04/25 05:23:27;;;;;;;4.60;1.30;;;;;;;11.32;87.30;99387.00;5590512;31;33988;-65
2022/04/25 05:26:30;;;;;;;3.97;1.10;;;;;;;11.27;86.78;99386.78;5576664;31;32480;-66
2022/04/25 05:29:32;;;;;;;1.73;1.00;;;;;;;11.39;86.63;99397.66;5575828;31;34519;-65
2022/04/25 05:32:50;;;;;;;1.75;0.90;;;;;;;11.41;85.55;99403.59;5576475;31;32313;-66
2022/04/25 05:35:53;;;;;;;2.00;0.95;;;;;;;11.60;84.84;99402.03;5590554;31;33949;-65
2022/04/25 05:38:55;;;;;;;1.90;1.05;;;;;;;11.58;86.62;99406.72;5590027;31;34142;-65
2022/04/25 05:41:58;;;;;;;1.25;0.80;;;;;;;11.47;85.56;99402.00;5576094;31;32961;-66
2022/04/25 05:45:03;;;;;;;1.87;0.85;;;;;;;11.49;86.42;99406.09;5590110;31;34600;-66
2022/04/25 05:51:58;;;;;;;2.28;0.90;;;;;;;11.57;87.18;99415.75;5576113;31;32562;-65
2022/04/25 05:54:50;;;;;;;2.08;1.00;;;;;;;11.93;83.81;99412.81;5590111;31;33947;-66
2022/04/25 05:57:53;;;;;;;2.10;1.00;;;;;;;12.02;83.92;99420.41;5590032;31;34102;-67
2022/04/25 06:01:00;;;;;;;2.47;0.95;;;;;;;12.07;84.25;99417.16;5589915;31;34925;-66
2022/04/25 06:04:04;;;;;;;2.45;1.20;;;;;;;12.23;81.44;99416.78;5575880;31;32649;-66
2022/04/25 06:07:06;;;;;;;2.35;0.90;;;;;;;12.32;83.62;99425.41;5590164;31;34266;-66
2022/04/25 06:10:11;;;;;;;4.53;1.65;;;;;;;12.54;83.35;99417.03;5590056;31;34286;-66
2022/04/25 06:13:18;;;;;;;2.10;0.70;;;;;;;12.44;83.07;99408.63;5576388;31;33280;-66
2022/04/25 06:16:21;;;;;;;3.92;1.17;;;;;;;12.53;79.10;99420.72;5549680;31;32713;-67
2022/04/25 06:19:23;;;;;;;1.15;0.68;;;;;;;12.54;80.89;99417.03;5576029;31;32612;-66
2022/04/25 06:22:26;;;;;;;2.25;1.17;;;;;;;12.53;79.06;99414.59;5576109;31;33260;-66
2022/04/25 06:25:30;;;;;;;1.67;1.02;;;;;;;12.50;82.25;99414.97;5575635;31;33684;-67
2022/04/25 06:28:33;;;;;;;4.62;1.37;;;;;;;12.55;80.66;99417.84;5575973;31;32506;-66
2022/04/25 06:31:35;;;;;;;3.37;1.05;;;;;;;12.76;81.21;99416.84;5575845;31;32787;-67
2022/04/25 06:34:39;;;;;;;5.15;1.30;;;;;;;12.69;80.10;99413.34;5575526;31;32575;-67
2022/04/25 06:37:41;;;;;;;6.10;1.42;;;;;;;12.71;80.32;99419.28;5562858;31;33703;-66
2022/04/25 06:40:46;;;;;;;2.20;1.40;;;;;;;13.00;78.27;99408.22;5575884;31;33912;-67
2022/04/25 06:43:48;;;;;;;3.80;1.48;;;;;;;13.03;79.58;99405.13;5575473;31;33012;-67
2022/04/25 06:46:51;;;;;;;5.82;1.42;;;;;;;13.04;79.47;99412.09;5562847;31;34573;-66
2022/04/25 06:49:54;;;;;;;4.50;1.20;;;;;;;13.21;79.11;99416.00;5575963;31;32507;-67
2022/04/25 06:52:57;;;;;;;2.40;1.10;;;;;;;13.29;76.91;99407.78;5575505;31;32814;-66
2022/04/25 06:56:00;;;;;;;2.05;1.10;;;;;;;13.67;75.42;99410.53;5589603;31;35231;-66
2022/04/25 06:59:03;;;;;;;1.92;0.70;;;;;;;14.20;72.51;99415.59;5575543;31;33730;-66
2022/04/25 07:02:06;;;;;;;2.40;0.93;;;;;;;14.94;69.51;99412.19;5562970;31;32525;-67
2022/04/25 07:05:09;;;;;;;1.80;0.80;;;;;;;15.50;68.24;99418.19;5575612;31;33406;-67
2022/04/25 07:08:12;;;;;;;3.58;1.23;;;;;;;16.08;63.64;99417.72;5575693;31;32558;-66
2022/04/25 07:11:15;;;;;;;2.17;0.70;;;;;;;16.51;62.62;99434.38;5589581;31;34318;-67
2022/04/25 07:14:19;;;;;;;2.42;0.85;;;;;;;17.07;61.06;99435.78;5576190;31;32602;-66
2022/04/25 07:17:22;;;;;;;2.95;0.80;;;;;;;17.69;58.96;99428.87;5576031;31;32302;-68
2022/04/25 07:20:25;;;;;;;2.40;0.80;;;;;;;18.33;55.94;99434.12;5589691;31;33888;-67
2022/04/25 07:30:13;;;;;;;1.30;0.68;;;;;;;17.26;56.57;99436.47;5575882;31;33590;-66
2022/04/25 07:33:16;;;;;;;2.08;0.80;;;;;;;17.49;56.41;99439.13;5589620;31;34767;-65
2022/04/25 07:36:21;;;;;;;1.58;0.80;;;;;;;17.09;57.25;99436.34;5575529;31;32610;-64
2022/04/25 07:39:24;;;;;;;2.83;0.70;;;;;;;17.29;55.71;99441.34;5589685;31;34189;-66
2022/04/25 07:42:29;;;;;;;1.87;0.70;;;;;;;17.28;55.59;99442.44;5575638;31;32526;-64
2022/04/25 07:45:32;;;;;;;2.30;1.15;;;;;;;17.93;54.28;99436.84;5589401;31;33963;-67
2022/04/25 07:48:35;;;;;;;0.80;0.70;;;;;;;18.93;52.76;99437.87;5575499;31;33073;-69
2022/04/25 07:51:42;;;;;;;1.05;0.70;;;;;;;19.48;51.01;99446.00;5588952;31;35156;-65
2022/04/25 07:54:45;;;;;;;1.62;0.52;;;;;;;18.35;53.05;99445.47;5575437;31;32593;-65
2022/04/25 07:57:47;;;;;;;2.15;0.82;;;;;;;18.81;51.20;99450.59;5575232;31;32527;-66
2022/04/25 08:00:50;;;;;;;0.95;0.77;;;;;;;18.66;51.64;99456.53;5574636;31;33288;-66
2022/04/25 08:04:01;;;;;;;2.90;0.90;;;;;;;18.87;50.58;99451.50;5575367;31;33475;-67
2022/04/25 08:07:04;;;;;;;1.30;0.80;;;;;;;18.84;51.00;99451.97;5589431;31;34650;-65
2022/04/25 08:10:07;;;;;;;1.33;0.80;;;;;;;19.75;48.61;99454.13;5575409;31;32355;-65
2022/04/25 08:19:53;;;;;;;1.87;0.90;;;;;;;19.89;47.82;99449.22;5588968;31;33919;-67
2022/04/25 08:23:11;;;;;;;2.40;0.88;;;;;;;21.48;44.75;99451.25;5588627;31;34639;-67
2022/04/25 08:26:14;;;;;;;1.95;0.88;;;;;;;23.06;40.32;99447.91;5575307;31;34654;-66
2022/04/25 08:29:17;;;;;;;0.93;0.70;;;;;;;21.63;42.24;99456.72;5588976;31;33830;-66
2022/04/25 08:32:19;;;;;;;1.42;0.80;;;;;;;20.78;43.27;99449.63;5574766;31;32522;-66
2022/04/25 08:35:24;;;;;;;2.65;0.80;;;;;;;20.64;42.81;99449.22;5574911;31;33745;-66
2022/04/25 08:38:26;;;;;;;0.80;0.60;;;;;;;19.58;46.49;99450.69;5574016;31;33230;-67
2022/04/25 08:41:34;;;;;;;0.98;0.70;;;;;;;20.20;45.54;99455.75;5574540;31;33263;-66
2022/04/25 08:44:38;;;;;;;0.90;0.70;;;;;;;20.14;44.93;99457.56;5574886;31;33354;-66
2022/04/25 08:48:01;;;;;;;1.37;1.10;;;;;;;19.69;45.68;99449.78;5574627;31;34885;-67
2022/04/25 08:51:05;;;;;;;0.80;0.60;;;;;;;22.25;41.90;99453.22;5574360;31;32585;-67
2022/04/25 08:54:08;;;;;;;1.42;0.68;;;;;;;23.98;38.60;99452.84;5588420;31;34603;-65
2022/04/25 08:57:13;;;;;;;1.37;0.62;;;;;;;22.35;38.04;99461.34;5574526;31;32928;-65
2022/04/25 09:00:16;;;;;;;0.50;0.50;;;;;;;21.27;40.59;99462.97;5588293;31;35227;-67
2022/04/25 09:03:18;;;;;;;1.12;0.60;;;;;;;20.34;41.28;99459.69;5588676;31;34470;-67
2022/04/25 09:06:21;;;;;;;2.60;0.60;;;;;;;18.17;48.02;99465.25;5574128;31;33965;-66
2022/04/25 09:09:24;;;;;;;0.93;0.60;;;;;;;17.70;49.76;99467.25;5588253;31;34648;-66
2022/04/25 09:12:28;;;;;;;0.90;0.60;;;;;;;18.03;49.77;99475.44;5573771;31;32466;-67
2022/04/25 09:15:32;;;;;;;0.95;0.55;;;;;;;19.35;45.77;99475.91;5588457;31;34644;-68
2022/04/25 09:18:35;;;;;;;0.80;0.50;;;;;;;19.20;46.55;99474.84;5587940;31;33958;-65
2022/04/25 09:21:43;;;;;;;1.27;0.40;;;;;;;20.02;44.88;99472.25;5573804;31;33223;-67
2022/04/25 09:24:46;;;;;;;0.80;0.50;;;;;;;22.04;40.76;99485.56;5573955;31;33720;-66
2022/04/25 09:28:07;;;;;;;0.57;0.50;;;;;;;23.47;37.17;99481.19;5587560;31;34669;-65
2022/04/25 09:31:13;;;;;;;1.37;0.70;;;;;;;24.00;35.29;99480.47;5587849;31;34610;-67
2022/04/25 09:34:59;;;;;;;1.25;0.50;;;;;;;23.28;36.85;99486.31;5587567;31;34614;-67
2022/04/25 09:37:46;;;;;;;0.52;0.40;;;;;;;22.78;37.08;99481.72;5564637;31;33011;-66
2022/04/25 09:40:50;;;;;;;1.15;0.55;;;;;;;21.38;40.08;99487.06;5576292;31;32866;-64
2022/04/25 09:43:58;;;;;;;1.10;0.40;;;;;;;19.50;44.78;99489.63;5590120;31;33999;-65
2022/04/25 09:47:12;;;;;;;1.37;0.40;;;;;;;18.64;45.96;99485.50;5588978;31;34184;-65
2022/04/25 09:50:15;;;;;;;1.62;0.73;;;;;;;18.38;46.47;99499.50;5587800;31;34810;-67
2022/04/25 09:53:52;;;;;;;0.60;0.40;;;;;;;19.40;44.34;99492.13;5576573;31;32775;-67
2022/04/25 09:56:55;;;;;;;0.77;0.35;;;;;;;19.98;43.19;99500.75;5576282;31;33490;-68
2022/04/25 09:59:59;;;;;;;0.77;0.30;;;;;;;19.83;44.56;99491.41;5589927;31;34654;-68
2022/04/25 10:03:16;;;;;;;1.23;0.68;;;;;;;20.24;45.08;99492.69;5576488;31;33098;-67
2022/04/25 10:06:21;;;;;;;0.20;0.17;;;;;;;21.52;40.89;99499.03;5576587;31;32606;-68
2022/04/25 10:09:25;;;;;;;1.40;0.40;;;;;;;20.66;42.89;99498.31;5589704;31;34267;-67
2022/04/25 10:12:34;;;;;;;0.40;0.30;;;;;;;20.50;42.94;99514.56;5590683;31;35246;-66
2022/04/25 10:15:38;;;;;;;1.23;0.30;;;;;;;19.53;43.02;99512.50;5576513;31;32760;-66
2022/04/25 10:18:42;;;;;;;0.40;0.30;;;;;;;18.08;46.46;99521.19;5590027;31;34653;-66
2022/04/25 10:21:46;;;;;;;0.82;0.40;;;;;;;17.55;47.08;99505.25;5590055;31;34014;-65
2022/04/25 10:24:49;;;;;;;0.47;0.40;;;;;;;17.43;47.62;99511.66;5590230;31;34050;-65
2022/04/25 10:27:51;;;;;;;0.30;0.22;;;;;;;17.59;47.38;99508.28;5590180;31;34047;-65
2022/04/25 10:31:04;;;;;;;1.17;0.43;;;;;;;17.42;48.27;99515.41;5590119;31;34275;-65
2022/04/25 10:34:08;;;;;;;1.10;0.40;;;;;;;17.33;49.10;99521.09;5575948;31;32450;-66
2022/04/25 10:37:33;;;;;;;0.47;0.30;;;;;;;18.04;46.79;99524.56;5576125;31;33169;-65
2022/04/25 10:44:18;;;;;;;0.62;0.40;;;;;;;19.97;43.50;99529.53;5589877;31;33987;-65
2022/04/25 10:47:22;;;;;;;1.23;0.50;;;;;;;21.27;40.43;99528.53;5575716;31;32798;-66
2022/04/25 10:50:26;;;;;;;0.55;0.30;;;;;;;19.45;45.59;99524.50;5576011;31;32526;-67
2022/04/25 10:53:55;;;;;;;0.43;0.30;;;;;;;19.40;45.82;99537.03;5576097;31;32927;-66
2022/04/25 10:57:08;;;;;;;0.50;0.47;;;;;;;18.97;45.36;99541.19;5568292;31;33569;-66
2022/04/25 11:00:37;;;;;;;0.73;0.28;;;;;;;18.28;48.19;99538.75;5589711;31;34744;-66
2022/04/25 11:04:04;;;;;;;0.80;0.40;;;;;;;18.85;45.96;99539.59;5589474;31;33982;-68
2022/04/25 11:07:23;;;;;;;0.60;0.40;;;;;;;20.77;41.22;99542.34;5590152;31;35516;-67
2022/04/25 11:10:44;;;;;;;0.28;0.20;;;;;;;20.10;41.89;99537.22;5589693;31;34341;-67
2022/04/25 11:14:00;;;;;;;1.55;0.20;;;;;;;18.62;45.65;99549.41;5589753;31;35573;-66
2022/04/25 11:17:21;;;;;;;0.73;0.30;;;;;;;18.45;47.63;99567.28;5589695;31;34535;-67
2022/04/25 11:20:55;;;;;;;0.50;0.30;;;;;;;18.41;47.18;99571.50;5589758;31;33920;-67
2022/04/25 11:24:01;;;;;;;0.50;0.30;;;;;;;22.22;39.17;99567.22;5576515;31;33373;-68
2022/04/25 11:27:11;;;;;;;0.40;0.40;;;;;;;24.34;34.05;99571.97;5576554;31;33006;-67
2022/04/25 11:30:16;;;;;;;0.20;0.20;;;;;;;24.33;34.01;99568.44;5574572;31;32618;-66
2022/04/25 11:33:18;;;;;;;0.40;0.30;;;;;;;21.13;40.28;99563.22;5574477;31;32743;-67
2022/04/25 11:36:22;;;;;;;0.60;0.40;;;;;;;20.13;41.54;99577.16;5589153;31;35128;-67
2022/04/25 11:42:46;;;;;;;0.40;0.30;;;;;;;18.00;45.88;99577.91;5589120;31;34069;-65
2022/04/25 11:45:49;;;;;;;1.67;0.43;;;;;;;17.38;48.19;99598.13;5589426;31;34108;-66
2022/04/25 11:48:54;;;;;;;0.40;0.40;;;;;;;18.03;46.06;99595.41;5575625;31;32619;-67
2022/04/25 11:51:58;;;;;;;1.08;0.32;;;;;;;20.42;42.42;99603.94;5575637;31;32864;-67
2022/04/25 11:55:03;;;;;;;0.45;0.30;;;;;;;19.73;43.56;99607.00;5575701;31;33040;-67
2022/04/25 11:58:06;;;;;;;0.50;0.40;;;;;;;18.40;46.69;99604.78;5575792;31;32492;-66
2022/04/25 12:01:10;;;;;;;0.30;0.30;;;;;;;17.61;48.55;99617.00;5575327;31;32586;-67
2022/04/25 12:04:23;;;;;;;0.40;0.40;;;;;;;17.58;51.91;99616.59;5575265;31;32404;-66
2022/04/25 12:07:32;;;;;;;0.32;0.30;;;;;;;17.50;51.73;99616.94;5575531;31;32443;-66
2022/04/25 12:17:17;;;;;;;0.30;0.30;;;;;;;23.20;38.62;99630.28;5575573;31;33029;-66
2022/04/25 12:20:29;;;;;;;0.75;0.30;;;;;;;22.49;38.31;99627.34;5575201;31;32708;-67
2022/04/25 12:23:33;;;;;;;0.40;0.40;;;;;;;20.37;43.09;99624.38;5589243;31;34670;-66
2022/04/25 12:26:36;;;;;;;0.68;0.40;;;;;;;18.55;47.73;99618.56;5589258;31;34311;-67
2022/04/25 12:30:06;;;;;;;0.40;0.37;;;;;;;18.17;49.61;99623.62;5575140;31;33718;-66
2022/04/25 12:33:10;;;;;;;4.97;0.40;;;;;;;18.03;49.41;99622.25;5589291;31;34531;-66
2022/04/25 12:36:25;;;;;;;0.52;0.43;;;;;;;17.86;51.21;99621.34;5575219;31;32570;-67
2022/04/25 12:39:28;;;;;;;1.30;0.52;;;;;;;18.63;47.27;99625.44;5588910;31;35303;-68
2022/04/25 12:42:44;;;;;;;0.73;0.57;;;;;;;20.26;43.52;99624.44;5588667;31;34043;-68
2022/04/25 12:45:49;;;;;;;0.35;0.30;;;;;;;20.13;44.52;99622.09;5588743;31;34350;-67
2022/04/25 12:49:04;;;;;;;0.70;0.40;;;;;;;22.53;39.07;99628.44;5588607;31;34264;-66
2022/04/25 12:52:08;;;;;;;0.25;0.25;;;;;;;22.79;37.85;99611.25;5588542;31;34634;-66
2022/04/25 12:55:12;;;;;;;0.30;0.30;;;;;;;22.65;37.44;99617.41;5574466;31;32418;-67
2022/04/25 12:58:16;;;;;;;1.77;0.30;;;;;;;21.76;38.68;99617.41;5574421;31;33982;-65
2022/04/25 13:01:36;;;;;;;1.48;0.40;;;;;;;22.50;35.39;99620.84;5588615;31;34102;-65
2022/04/25 13:04:52;;;;;;;0.50;0.50;;;;;;;20.97;37.58;99623.44;5574143;31;33019;-67
2022/04/25 13:07:56;;;;;;;0.50;0.30;;;;;;;22.06;36.15;99623.06;5574200;31;33205;-66
2022/04/25 13:10:58;;;;;;;0.40;0.30;;;;;;;21.20;37.25;99628.53;5588504;31;33984;-66
2022/04/25 13:14:02;;;;;;;0.85;0.40;;;;;;;23.60;34.27;99624.09;5588262;31;35231;-67
2022/04/25 13:17:06;;;;;;;0.40;0.40;;;;;;;23.37;32.97;99620.03;5574082;31;34581;-65
2022/04/25 13:20:11;;;;;;;0.40;0.37;;;;;;;23.99;32.69;99621.63;5574111;31;34133;-66
2022/04/25 13:23:15;;;;;;;0.40;0.32;;;;;;;25.83;29.69;99618.50;5587902;31;33983;-68
2022/04/25 13:26:20;;;;;;;0.60;0.30;;;;;;;28.73;26.76;99625.63;5576083;31;33546;-65
2022/04/25 13:29:22;;;;;;;0.70;0.45;;;;;;;27.79;26.13;99617.00;5590488;31;34687;-67
2022/04/25 13:32:26;;;;;;;0.57;0.30;;;;;;;29.50;23.97;99613.75;5576338;31;33426;-71
2022/04/25 13:35:29;;;;;;;0.30;0.30;;;;;;;28.78;23.22;99608.31;5576362;31;33168;-66
2022/04/25 13:38:34;;;;;;;1.85;0.20;;;;;;;26.39;26.06;99616.03;5590356;31;34540;-66
2022/04/25 13:41:36;;;;;;;0.40;0.40;;;;;;;27.62;24.86;99611.34;5590465;31;33969;-68
2022/04/25 13:44:40;;;;;;;1.25;0.32;;;;;;;26.58;27.14;99614.16;5589781;31;33905;-69
2022/04/25 13:47:42;;;;;;;1.87;0.32;;;;;;;25.44;27.89;99635.66;5576218;31;33667;-65
2022/04/25 13:50:45;;;;;;;0.40;0.40;;;;;;;27.04;26.22;99629.91;5589727;31;34068;-67
2022/04/25 13:53:48;;;;;;;0.57;0.40;;;;;;;24.86;30.52;99623.78;5590170;31;34130;-66
2022/04/25 13:56:50;;;;;;;2.35;0.40;;;;;;;27.26;27.36;99635.56;5590259;31;34788;-67
2022/04/25 13:59:53;;;;;;;0.35;0.30;;;;;;;29.22;24.83;99623.97;5576236;31;33524;-65
2022/04/25 14:03:11;;;;;;;1.77;0.50;;;;;;;29.45;24.48;99625.63;5575870;31;33063;-67
2022/04/25 14:06:20;;;;;;;0.75;0.45;;;;;;;27.58;26.09;99624.75;5589541;31;34225;-66
2022/04/25 14:09:23;;;;;;;0.60;0.40;;;;;;;24.62;30.95;99625.53;5589748;31;35421;-68
2022/04/25 14:12:26;;;;;;;0.82;0.37;;;;;;;22.58;34.40;99617.63;5589746;31;34098;-68
2022/04/25 14:15:28;;;;;;;0.65;0.30;;;;;;;21.42;36.24;99624.97;5575675;31;32839;-66
2022/04/25 14:18:31;;;;;;;2.40;0.50;;;;;;;21.65;36.13;99628.13;5589418;31;33892;-66
2022/04/25 14:21:34;;;;;;;0.93;0.40;;;;;;;20.79;37.93;99623.78;5589425;31;35579;-65
2022/04/25 14:24:36;;;;;;;0.50;0.43;;;;;;;21.37;37.65;99636.53;5575577;31;34026;-65
2022/04/25 14:27:39;;;;;;;1.00;0.52;;;;;;;20.97;38.08;99628.00;5575056;31;33862;-67
2022/04/25 14:30:42;;;;;;;1.48;0.43;;;;;;;20.75;39.40;99626.16;5588851;31;35268;-66
2022/04/25 14:33:45;;;;;;;0.45;0.40;;;;;;;21.30;37.75;99644.00;5589361;31;35360;-65
2022/04/25 14:36:48;;;;;;;1.27;0.68;;;;;;;20.42;40.00;99638.97;5588372;31;33934;-66
2022/04/25 14:39:51;;;;;;;1.15;0.57;;;;;;;20.48;40.60;99640.66;5574883;31;32574;-67
2022/04/25 14:42:54;;;;;;;0.60;0.40;;;;;;;21.04;38.88;99634.84;5574599;31;33446;-66
2022/04/25 14:45:57;;;;;;;0.80;0.47;;;;;;;21.34;36.40;99653.25;5575099;31;32474;-64
2022/04/25 14:49:00;;;;;;;7.43;2.25;;;;;;;19.86;39.16;99646.19;5575386;31;34145;-65
2022/04/25 14:55:24;;;;;;;1.05;0.50;;;;;;;18.81;43.38;99646.75;5574712;31;32567;-65
2022/04/25 14:58:26;;;;;;;0.93;0.52;;;;;;;19.62;41.84;99642.03;5574792;31;33332;-66
2022/04/25 15:01:33;;;;;;;1.12;0.50;;;;;;;19.51;41.05;99649.94;5574838;31;33520;-66
2022/04/25 15:04:37;;;;;;;0.70;0.60;;;;;;;18.94;41.68;99648.34;5574950;31;33723;-66
2022/04/25 15:07:39;;;;;;;2.10;0.60;;;;;;;18.50;42.97;99642.59;5588780;31;33989;-66
2022/04/25 15:10:43;;;;;;;0.80;0.55;;;;;;;17.92;44.43;99641.84;5574977;31;32277;-66